createdAt,value
2023-11-24T00:01:57.587Z,90.40
2023-11-24T00:04:26.334Z,90.40
2023-11-24T00:06:54.131Z,90.60
2023-11-24T00:09:21.894Z,90.80
2023-11-24T00:11:49.567Z,90.90
2023-11-24T00:14:17.235Z,90.90
2023-11-24T00:16:45.819Z,90.90
2023-11-24T00:19:15.462Z,90.60
2023-11-24T00:21:48.080Z,91.60
2023-11-24T00:24:15.891Z,91.30
2023-11-24T00:26:43.641Z,91.00
2023-11-24T00:29:12.849Z,90.80
2023-11-24T00:31:41.691Z,90.70
2023-11-24T00:34:09.584Z,91.00
2023-11-24T00:36:38.938Z,90.90
2023-11-24T00:39:06.676Z,91.00
2023-11-24T00:41:34.503Z,91.00
2023-11-24T00:44:03.889Z,91.00
2023-11-24T00:46:32.033Z,90.60
2023-11-24T00:48:59.769Z,90.10
2023-11-24T00:51:28.354Z,90.10
2023-11-24T00:53:56.290Z,90.00
2023-11-24T00:56:24.534Z,90.50
2023-11-24T00:58:53.317Z,90.50
2023-11-24T01:01:20.975Z,90.20
2023-11-24T01:03:48.723Z,90.30
2023-11-24T01:06:16.375Z,90.40
2023-11-24T01:08:44.005Z,90.10
2023-11-24T01:11:11.650Z,90.00
2023-11-24T01:13:40.554Z,90.00
2023-11-24T01:16:08.364Z,90.00
2023-11-24T01:18:39.156Z,89.70
2023-11-24T01:21:09.153Z,89.20
2023-11-24T01:23:37.298Z,89.20
2023-11-24T01:26:06.647Z,88.60
2023-11-24T01:28:34.561Z,88.70
2023-11-24T01:31:02.377Z,88.80
2023-11-24T01:33:31.961Z,88.80
2023-11-24T01:36:00.398Z,88.90
2023-11-24T01:38:30.319Z,88.50
2023-11-24T01:40:58.186Z,88.20
2023-11-24T01:43:27.263Z,88.40
2023-11-24T01:45:57.356Z,88.50
2023-11-24T01:48:25.805Z,88.20
2023-11-24T01:50:53.825Z,88.30
2023-11-24T01:53:21.507Z,88.00
2023-11-24T01:55:49.721Z,88.00
2023-11-24T01:58:18.886Z,88.50
2023-11-24T02:00:47.161Z,88.20
2023-11-24T02:03:14.901Z,88.20
2023-11-24T02:05:43.263Z,87.90
2023-11-24T02:08:11.471Z,88.20
2023-11-24T02:10:39.157Z,88.00
2023-11-24T02:13:06.969Z,88.00
2023-11-24T02:15:34.581Z,87.90
2023-11-24T02:18:02.287Z,87.90
2023-11-24T02:20:34.807Z,88.30
2023-11-24T02:23:02.578Z,88.00
2023-11-24T02:25:30.276Z,87.80
2023-11-24T02:27:57.951Z,87.70
2023-11-24T02:30:25.727Z,87.30
2023-11-24T02:32:53.954Z,87.20
2023-11-24T02:35:22.940Z,86.40
2023-11-24T02:37:50.633Z,86.30
2023-11-24T02:40:22.106Z,86.40
2023-11-24T02:42:49.933Z,86.30
2023-11-24T02:45:18.321Z,86.10
2023-11-24T02:47:46.049Z,85.70
2023-11-24T02:50:13.898Z,84.30
2023-11-24T02:52:42.298Z,84.70
2023-11-24T02:55:10.261Z,85.20
2023-11-24T02:57:38.432Z,83.70
2023-11-24T03:00:07.078Z,85.10
2023-11-24T03:02:36.275Z,83.70
2023-11-24T03:05:08.225Z,84.50
2023-11-24T03:07:36.665Z,82.60
2023-11-24T03:10:04.700Z,82.90
2023-11-24T03:12:33.366Z,83.80
2023-11-24T03:15:02.179Z,83.90
2023-11-24T03:17:32.413Z,83.90
2023-11-24T03:20:00.526Z,83.00
2023-11-24T03:22:28.740Z,82.50
2023-11-24T03:24:56.539Z,83.30
2023-11-24T03:27:24.297Z,80.80
2023-11-24T03:29:52.193Z,82.50
2023-11-24T03:32:19.851Z,82.80
2023-11-24T03:34:48.732Z,80.90
2023-11-24T03:37:16.416Z,81.40
2023-11-24T03:39:44.196Z,79.90
2023-11-24T03:42:12.264Z,79.70
2023-11-24T03:44:40.747Z,80.70
2023-11-24T03:47:08.469Z,79.90
2023-11-24T03:49:36.608Z,80.60
2023-11-24T03:52:05.974Z,80.10
2023-11-24T03:54:34.518Z,82.00
2023-11-24T03:57:02.436Z,81.90
2023-11-24T03:59:30.468Z,81.30
2023-11-24T04:01:58.203Z,81.60
2023-11-24T04:04:25.889Z,80.00
2023-11-24T04:06:54.577Z,80.60
2023-11-24T04:09:22.378Z,80.90
2023-11-24T04:11:50.319Z,81.30
2023-11-24T04:14:18.335Z,80.40
2023-11-24T04:16:46.197Z,80.80
2023-11-24T04:19:15.067Z,80.50
2023-11-24T04:21:42.861Z,80.20
2023-11-24T04:24:12.548Z,81.00
2023-11-24T04:26:40.787Z,81.20
2023-11-24T04:29:08.711Z,80.80
2023-11-24T04:31:36.507Z,79.70
2023-11-24T04:34:05.514Z,77.80
2023-11-24T04:36:33.735Z,77.60
2023-11-24T04:39:01.832Z,78.40
2023-11-24T04:41:30.040Z,78.50
2023-11-24T04:43:57.715Z,75.20
2023-11-24T04:46:26.443Z,77.80
2023-11-24T04:48:58.689Z,79.10
2023-11-24T04:51:29.947Z,76.90
2023-11-24T04:53:59.246Z,76.40
2023-11-24T04:56:27.781Z,78.40
2023-11-24T04:58:57.019Z,77.40
2023-11-24T05:01:30.305Z,76.70
2023-11-24T05:04:01.484Z,74.10
2023-11-24T05:06:29.602Z,74.90
2023-11-24T05:08:58.096Z,75.80
2023-11-24T05:11:26.509Z,76.20
2023-11-24T05:13:55.315Z,75.30
2023-11-24T05:16:24.249Z,74.50
2023-11-24T05:18:54.373Z,74.20
2023-11-24T05:21:22.880Z,76.90
2023-11-24T05:23:52.014Z,77.40
2023-11-24T05:26:19.680Z,75.30
2023-11-24T05:28:47.331Z,73.70
2023-11-24T05:31:15.078Z,76.90
2023-11-24T05:33:43.653Z,74.60
2023-11-24T05:36:12.169Z,75.60
2023-11-24T05:38:41.746Z,74.00
2023-11-24T05:41:09.494Z,72.80
2023-11-24T05:43:37.176Z,75.00
2023-11-24T05:46:07.765Z,73.10
2023-11-24T05:48:35.583Z,71.80
2023-11-24T05:51:03.913Z,72.10
2023-11-24T05:53:31.521Z,75.00
2023-11-24T05:55:59.146Z,75.20
2023-11-24T05:58:27.545Z,75.80
2023-11-24T06:00:56.738Z,73.80
2023-11-24T06:06:01.040Z,74.90
2023-11-24T06:08:28.938Z,72.10
2023-11-24T06:10:56.590Z,71.20
2023-11-24T06:13:24.402Z,73.70
2023-11-24T06:15:58.979Z,72.10
2023-11-24T06:18:27.636Z,72.60
2023-11-24T06:20:57.603Z,70.10
2023-11-24T06:23:25.570Z,72.80
2023-11-24T06:25:54.269Z,72.60
2023-11-24T06:28:26.339Z,72.00
2023-11-24T06:30:54.075Z,72.90
2023-11-24T06:33:21.770Z,71.70
2023-11-24T06:35:51.886Z,74.20
2023-11-24T06:38:19.577Z,73.90
2023-11-24T06:41:03.872Z,69.70
2023-11-24T06:43:31.602Z,70.40
2023-11-24T06:45:59.328Z,69.40
2023-11-24T06:48:29.026Z,69.60
2023-11-24T06:50:57.927Z,71.40
2023-11-24T06:53:25.716Z,71.60
2023-11-24T06:55:53.394Z,72.00
2023-11-24T06:58:21.215Z,72.00
2023-11-24T07:00:51.920Z,72.40
2023-11-24T07:03:19.723Z,71.30
2023-11-24T07:05:48.763Z,69.60
2023-11-24T07:08:18.274Z,70.10
2023-11-24T07:10:46.045Z,69.70
2023-11-24T07:13:14.081Z,70.00
2023-11-24T07:15:41.737Z,71.20
2023-11-24T07:18:09.600Z,73.00
2023-11-24T07:20:37.294Z,72.80
2023-11-24T07:23:05.722Z,72.10
2023-11-24T07:25:33.557Z,72.60
2023-11-24T07:28:01.680Z,71.60
2023-11-24T07:30:29.308Z,69.90
2023-11-24T07:32:57.038Z,70.50
2023-11-24T07:35:24.663Z,71.80
2023-11-24T07:37:52.303Z,70.70
2023-11-24T07:40:20.069Z,71.60
2023-11-24T07:42:48.263Z,71.80
2023-11-24T07:45:16.963Z,71.00
2023-11-24T07:47:45.829Z,70.60
2023-11-24T07:50:13.679Z,71.20
2023-11-24T07:52:42.600Z,70.90
2023-11-24T07:55:10.403Z,71.70
2023-11-24T07:57:38.461Z,72.40
2023-11-24T08:00:10.608Z,71.40
2023-11-24T08:02:38.677Z,70.90
2023-11-24T08:05:07.680Z,71.50
2023-11-24T08:07:35.860Z,71.80
2023-11-24T08:10:04.759Z,71.60
2023-11-24T08:12:34.471Z,72.40
2023-11-24T08:15:02.144Z,71.50
2023-11-24T08:17:29.755Z,71.60
2023-11-24T08:19:59.438Z,71.70
2023-11-24T08:22:29.463Z,71.80
2023-11-24T08:24:57.385Z,71.30
2023-11-24T08:27:25.623Z,72.30
2023-11-24T08:29:53.416Z,73.00
2023-11-24T08:32:21.711Z,71.70
2023-11-24T08:34:50.289Z,71.50
2023-11-24T08:37:18.004Z,73.10
2023-11-24T08:39:45.678Z,72.50
2023-11-24T08:42:14.078Z,72.70
2023-11-24T08:44:41.841Z,73.20
2023-11-24T08:47:09.892Z,73.50
2023-11-24T08:49:37.633Z,73.20
2023-11-24T08:52:06.148Z,73.60
2023-11-24T08:54:33.968Z,72.90
2023-11-24T08:57:01.740Z,72.50
2023-11-24T08:59:30.808Z,72.30
2023-11-24T09:01:59.688Z,72.40
2023-11-24T09:04:30.127Z,72.90
2023-11-24T09:06:58.366Z,72.10
2023-11-24T09:09:26.344Z,72.30
2023-11-24T09:11:54.302Z,72.50
2023-11-24T09:14:21.953Z,72.90
2023-11-24T09:16:58.057Z,73.40
2023-11-24T09:19:25.800Z,73.50
2023-11-24T09:21:53.963Z,73.60
2023-11-24T09:24:22.229Z,73.20
2023-11-24T09:26:50.118Z,73.20
2023-11-24T09:29:17.955Z,74.20
2023-11-24T09:31:45.751Z,73.90
2023-11-24T09:34:17.406Z,73.60
2023-11-24T09:36:47.087Z,74.00
2023-11-24T09:39:22.936Z,74.20
2023-11-24T09:41:51.014Z,74.30
2023-11-24T09:44:18.710Z,74.30
2023-11-24T09:46:51.963Z,74.50
2023-11-24T09:49:22.696Z,74.60
2023-11-24T09:51:50.520Z,74.60
2023-11-24T09:54:23.156Z,75.10
2023-11-24T09:56:50.956Z,74.70
2023-11-24T09:59:20.909Z,74.60
2023-11-24T10:01:50.355Z,74.70
2023-11-24T10:04:18.069Z,75.20
2023-11-24T10:06:46.837Z,75.40
2023-11-24T10:09:23.106Z,75.60
2023-11-24T10:11:50.702Z,75.70
2023-11-24T10:14:18.316Z,75.80
2023-11-24T10:16:45.985Z,75.80
2023-11-24T10:19:20.751Z,75.80
2023-11-24T10:21:53.238Z,75.90
2023-11-24T10:24:23.013Z,75.90
2023-11-24T10:26:51.569Z,76.10
2023-11-24T10:29:20.824Z,76.10
2023-11-24T10:31:48.494Z,76.20
2023-11-24T10:34:17.550Z,76.40
2023-11-24T10:36:47.107Z,76.40
2023-11-24T10:39:16.952Z,76.50
2023-11-24T10:41:48.190Z,76.70
2023-11-24T10:44:18.866Z,76.80
2023-11-24T10:46:49.801Z,76.90
2023-11-24T10:49:32.873Z,77.00
2023-11-24T10:52:08.696Z,77.20
2023-11-24T10:54:37.839Z,77.20
2023-11-24T10:57:07.024Z,77.50
2023-11-24T10:59:40.223Z,77.60
2023-11-24T11:02:13.025Z,77.90
2023-11-24T11:04:47.389Z,77.90
2023-11-24T11:07:28.876Z,78.00
2023-11-24T11:10:03.890Z,78.00
2023-11-24T11:12:38.987Z,78.20
2023-11-24T11:15:08.331Z,78.40
2023-11-24T11:17:35.952Z,78.50
2023-11-24T11:20:10.753Z,78.50
2023-11-24T11:22:39.425Z,78.80
2023-11-24T11:25:16.260Z,78.80
2023-11-24T11:27:49.689Z,78.80
2023-11-24T11:30:17.598Z,79.00
2023-11-24T11:32:45.208Z,79.10
2023-11-24T11:35:13.393Z,79.10
2023-11-24T11:37:42.831Z,79.10
2023-11-24T11:40:14.151Z,79.20
2023-11-24T11:42:55.128Z,79.20
2023-11-24T11:45:31.552Z,79.40
2023-11-24T11:48:01.205Z,79.40
2023-11-24T11:50:29.693Z,79.40
2023-11-24T11:53:02.172Z,79.50
2023-11-24T11:55:30.525Z,79.50
2023-11-24T11:58:02.049Z,79.80
2023-11-24T12:00:33.160Z,80.00
2023-11-24T12:03:01.159Z,79.80
2023-11-24T12:05:28.858Z,79.60
2023-11-24T12:07:59.584Z,79.70
2023-11-24T12:10:31.662Z,80.10
2023-11-24T12:13:05.771Z,80.50
2023-11-24T12:15:35.882Z,80.00
2023-11-24T12:18:03.953Z,80.30
2023-11-24T12:20:32.866Z,80.40
2023-11-24T12:23:01.474Z,80.60
2023-11-24T12:25:29.188Z,80.40
2023-11-24T12:28:00.666Z,80.40
2023-11-24T12:30:30.176Z,80.90
2023-11-24T12:32:58.246Z,80.70
2023-11-24T12:35:28.998Z,81.00
2023-11-24T12:37:57.683Z,81.20
2023-11-24T12:40:29.136Z,81.20
2023-11-24T12:43:02.807Z,81.20
2023-11-24T12:45:31.184Z,81.00
2023-11-24T12:48:07.073Z,81.20
2023-11-24T12:50:34.734Z,81.50
2023-11-24T12:53:02.396Z,81.40
2023-11-24T12:55:30.007Z,81.60
2023-11-24T12:57:57.819Z,81.40
2023-11-24T13:00:27.658Z,81.70
2023-11-24T13:02:57.250Z,82.20
2023-11-24T13:05:27.130Z,81.80
2023-11-24T13:07:54.758Z,82.00
2023-11-24T13:10:22.523Z,81.90
2023-11-24T13:12:50.569Z,81.90
2023-11-24T13:15:18.424Z,82.00
2023-11-24T13:17:46.154Z,82.00
2023-11-24T13:20:15.068Z,82.00
2023-11-24T13:22:43.864Z,82.30
2023-11-24T13:25:12.387Z,82.00
2023-11-24T13:27:40.320Z,82.50
2023-11-24T13:30:11.832Z,82.30
2023-11-24T13:32:40.883Z,82.50
2023-11-24T13:35:12.136Z,82.50
2023-11-24T13:37:40.382Z,82.40
2023-11-24T13:40:10.943Z,82.70
2023-11-24T13:42:38.891Z,82.70
2023-11-24T13:45:07.930Z,82.50
2023-11-24T13:47:36.871Z,82.80
2023-11-24T13:50:05.779Z,82.90
2023-11-24T13:52:36.381Z,82.90
2023-11-24T13:55:07.598Z,82.70
2023-11-24T13:57:37.180Z,82.60
2023-11-24T14:00:08.340Z,83.20
2023-11-24T14:02:37.647Z,82.80
2023-11-24T14:05:06.177Z,83.40
2023-11-24T14:07:33.870Z,83.20
2023-11-24T14:10:01.556Z,83.10
2023-11-24T14:12:30.542Z,83.60
2023-11-24T14:15:01.746Z,84.00
2023-11-24T14:17:31.103Z,83.50
2023-11-24T14:19:58.855Z,83.30
2023-11-24T14:22:26.613Z,83.60
2023-11-24T14:24:57.445Z,83.10
2023-11-24T14:27:25.644Z,83.50
2023-11-24T14:29:53.202Z,84.90
2023-11-24T14:32:20.964Z,84.00
2023-11-24T14:34:48.592Z,83.50
2023-11-24T14:37:19.042Z,84.20
2023-11-24T14:39:47.961Z,83.90
2023-11-24T14:42:16.365Z,83.80
2023-11-24T14:44:44.128Z,83.90
2023-11-24T14:47:13.573Z,83.70
2023-11-24T14:49:41.848Z,83.70
2023-11-24T14:52:09.504Z,84.00
2023-11-24T14:54:38.908Z,83.80
2023-11-24T14:57:07.276Z,83.80
2023-11-24T14:59:34.934Z,84.00
2023-11-24T15:02:09.098Z,84.00
2023-11-24T15:04:37.408Z,84.20
2023-11-24T15:07:09.038Z,84.20
2023-11-24T15:09:37.340Z,84.10
2023-11-24T15:12:06.465Z,83.80
2023-11-24T15:14:34.806Z,84.10
2023-11-24T15:17:06.336Z,84.40
2023-11-24T15:19:40.314Z,84.40
2023-11-24T15:22:10.992Z,84.20
2023-11-24T15:24:39.983Z,84.10
2023-11-24T15:27:09.262Z,84.20
2023-11-24T15:29:39.057Z,84.10
2023-11-24T15:32:14.604Z,84.10
2023-11-24T15:34:42.184Z,83.80
2023-11-24T15:37:10.297Z,83.90
2023-11-24T15:39:44.773Z,84.40
2023-11-24T15:42:17.026Z,84.00
2023-11-24T15:44:46.163Z,84.20
2023-11-24T15:47:13.841Z,84.00
2023-11-24T15:49:42.977Z,84.10
2023-11-24T15:52:13.820Z,84.10
2023-11-24T15:54:42.060Z,84.10
2023-11-24T15:57:13.429Z,84.40
2023-11-24T15:59:47.240Z,84.50
2023-11-24T16:02:24.154Z,85.00
2023-11-24T16:04:57.800Z,84.50
2023-11-24T16:07:33.293Z,84.40
2023-11-24T16:10:02.083Z,84.80
2023-11-24T16:12:34.884Z,84.80
2023-11-24T16:15:02.758Z,84.70
2023-11-24T16:17:30.406Z,85.20
2023-11-24T16:19:59.990Z,84.80
2023-11-24T16:22:27.668Z,85.30
2023-11-24T16:24:55.234Z,85.50
2023-11-24T16:27:23.740Z,85.40
2023-11-24T16:29:51.423Z,84.90
2023-11-24T16:32:20.684Z,85.60
2023-11-24T16:34:48.376Z,85.60
2023-11-24T16:37:17.454Z,85.60
2023-11-24T16:39:45.073Z,85.80
2023-11-24T16:42:12.678Z,85.70
2023-11-24T16:44:40.309Z,85.40
2023-11-24T16:47:08.656Z,85.90
2023-11-24T16:49:36.357Z,86.60
2023-11-24T16:52:04.918Z,85.80
2023-11-24T16:54:32.527Z,85.30
2023-11-24T16:57:00.079Z,85.60
2023-11-24T16:59:27.700Z,86.20
2023-11-24T17:01:56.158Z,86.10
2023-11-24T17:04:28.492Z,85.70
2023-11-24T17:06:56.556Z,86.10
2023-11-24T17:09:24.565Z,85.70
2023-11-24T17:11:52.667Z,86.20
2023-11-24T17:14:20.311Z,86.20
2023-11-24T17:16:47.976Z,85.80
2023-11-24T17:19:17.467Z,86.00
2023-11-24T17:21:49.653Z,86.20
2023-11-24T17:24:17.215Z,86.00
2023-11-24T17:26:45.977Z,86.40
2023-11-24T17:29:16.476Z,86.60
2023-11-24T17:31:44.597Z,86.40
2023-11-24T17:34:17.997Z,86.30
2023-11-24T17:36:49.308Z,86.20
2023-11-24T17:39:19.107Z,86.60
2023-11-24T17:41:47.645Z,87.60
2023-11-24T17:44:17.480Z,87.30
2023-11-24T17:46:47.760Z,87.40
2023-11-24T17:49:15.471Z,86.90
2023-11-24T17:51:43.324Z,87.10
2023-11-24T17:54:11.180Z,87.00
2023-11-24T17:56:38.979Z,87.50
2023-11-24T17:59:07.287Z,87.10
2023-11-24T18:01:36.233Z,87.10
2023-11-24T18:04:03.995Z,87.60
2023-11-24T18:06:31.739Z,87.50
2023-11-24T18:08:59.305Z,87.00
2023-11-24T18:11:33.077Z,86.80
2023-11-24T18:14:05.733Z,86.00
2023-11-24T18:16:33.427Z,87.10
2023-11-24T18:19:01.059Z,87.50
2023-11-24T18:21:28.729Z,86.90
2023-11-24T18:23:56.500Z,87.30
2023-11-24T18:26:24.077Z,87.30
2023-11-24T18:28:52.477Z,87.60
2023-11-24T18:31:21.098Z,87.30
2023-11-24T18:33:49.252Z,87.20
2023-11-24T18:36:17.182Z,88.20
2023-11-24T18:38:44.814Z,88.10
2023-11-24T18:41:13.019Z,88.40
2023-11-24T18:43:41.191Z,87.80
2023-11-24T18:46:09.351Z,89.10
2023-11-24T18:48:37.224Z,88.30
2023-11-24T18:51:04.932Z,88.90
2023-11-24T18:53:32.574Z,89.20
2023-11-24T18:56:00.328Z,89.60
2023-11-24T18:58:27.974Z,86.80
2023-11-24T19:00:55.648Z,87.60
2023-11-24T19:03:24.178Z,88.40
2023-11-24T19:05:52.712Z,89.00
2023-11-24T19:08:20.300Z,90.00
2023-11-24T19:10:49.093Z,88.70
2023-11-24T19:13:17.784Z,88.90
2023-11-24T19:15:46.890Z,90.00
2023-11-24T19:18:15.194Z,89.60
2023-11-24T19:20:42.871Z,90.10
2023-11-24T19:23:10.732Z,89.30
2023-11-24T19:25:38.438Z,89.20
2023-11-24T19:28:06.214Z,89.10
2023-11-24T19:30:35.299Z,89.00
2023-11-24T19:33:03.202Z,88.50
2023-11-24T19:35:30.985Z,89.80
2023-11-24T19:37:58.698Z,89.80
2023-11-24T19:40:26.306Z,89.20
2023-11-24T19:42:54.029Z,89.20
2023-11-24T19:45:21.653Z,89.60
2023-11-24T19:47:49.592Z,89.50
2023-11-24T19:50:17.217Z,90.20
2023-11-24T19:52:45.720Z,89.10
2023-11-24T19:55:13.438Z,89.60
2023-11-24T19:57:40.999Z,89.20
2023-11-24T20:00:10.842Z,89.50
2023-11-24T20:02:38.946Z,89.20
2023-11-24T20:05:07.503Z,90.30
2023-11-24T20:07:35.245Z,89.60
2023-11-24T20:10:02.931Z,90.30
2023-11-24T20:12:30.580Z,90.50
2023-11-24T20:14:58.459Z,90.50
2023-11-24T20:17:27.631Z,90.20
2023-11-24T20:19:55.256Z,90.10
2023-11-24T20:22:23.010Z,90.00
2023-11-24T20:24:50.687Z,90.20
2023-11-24T20:27:18.229Z,90.00
2023-11-24T20:29:45.806Z,89.80
2023-11-24T20:32:13.421Z,90.10
2023-11-24T20:34:41.272Z,90.10
2023-11-24T20:37:09.222Z,90.60
2023-11-24T20:39:37.289Z,90.50
2023-11-24T20:42:05.312Z,89.20
2023-11-24T20:44:34.613Z,89.30
2023-11-24T20:47:02.527Z,88.90
2023-11-24T20:49:30.348Z,89.30
2023-11-24T20:51:58.605Z,90.00
2023-11-24T20:54:26.342Z,89.80
2023-11-24T20:56:54.033Z,89.50
2023-11-24T20:59:22.674Z,89.60
2023-11-24T21:01:51.278Z,90.10
2023-11-24T21:04:19.063Z,90.50
2023-11-24T21:06:47.336Z,90.60
2023-11-24T21:09:16.763Z,90.60
2023-11-24T21:11:44.492Z,90.60
2023-11-24T21:14:12.266Z,89.70
2023-11-24T21:16:39.988Z,90.60
2023-11-24T21:19:08.027Z,90.70
2023-11-24T21:21:35.701Z,90.80
2023-11-24T21:24:03.368Z,90.30
2023-11-24T21:26:31.815Z,90.30
2023-11-24T21:28:59.446Z,90.50
2023-11-24T21:31:27.064Z,90.30
2023-11-24T21:33:56.499Z,90.30
2023-11-24T21:36:24.153Z,90.10
2023-11-24T21:38:51.715Z,90.10
2023-11-24T21:41:21.312Z,90.10
2023-11-24T21:43:50.079Z,90.20
2023-11-24T21:46:24.073Z,90.40
2023-11-24T21:48:51.752Z,90.50
2023-11-24T21:51:19.460Z,90.90
2023-11-24T21:53:47.180Z,90.70
2023-11-24T21:56:23.816Z,90.90
2023-11-24T21:58:52.022Z,90.60
2023-11-24T22:01:22.459Z,90.60
2023-11-24T22:03:50.328Z,91.00
2023-11-24T22:06:23.002Z,90.30
2023-11-24T22:08:50.552Z,90.30
2023-11-24T22:11:18.875Z,90.20
2023-11-24T22:13:46.476Z,90.20
2023-11-24T22:16:14.193Z,90.30
2023-11-24T22:18:41.846Z,90.20
2023-11-24T22:21:09.482Z,90.40
2023-11-24T22:23:37.077Z,90.90
2023-11-24T22:26:04.762Z,90.80
2023-11-24T22:28:32.438Z,91.00
2023-11-24T22:31:00.240Z,91.30
2023-11-24T22:33:27.867Z,91.30
2023-11-24T22:35:55.461Z,90.90
2023-11-24T22:38:23.072Z,91.10
2023-11-24T22:40:50.609Z,91.00
2023-11-24T22:43:18.977Z,91.40
2023-11-24T22:45:47.429Z,91.40
2023-11-24T22:48:15.142Z,90.90
2023-11-24T22:50:42.785Z,91.00
2023-11-24T22:53:10.414Z,91.50
2023-11-24T22:55:38.699Z,92.00
2023-11-24T22:58:06.572Z,92.60
2023-11-24T23:00:37.722Z,91.70
2023-11-24T23:03:05.746Z,91.70
2023-11-24T23:05:33.508Z,92.20
2023-11-24T23:08:01.147Z,92.10
2023-11-24T23:10:32.743Z,91.80
2023-11-24T23:13:02.738Z,92.20
2023-11-24T23:15:32.657Z,92.50
2023-11-24T23:18:01.533Z,92.30
2023-11-24T23:20:29.720Z,92.60
2023-11-24T23:22:57.340Z,92.60
2023-11-24T23:25:25.032Z,92.60
2023-11-24T23:27:52.724Z,92.60
2023-11-24T23:30:20.262Z,92.50
2023-11-24T23:32:47.912Z,92.90
2023-11-24T23:35:15.577Z,92.90
2023-11-24T23:37:45.556Z,92.40
2023-11-24T23:40:15.555Z,92.40
2023-11-24T23:42:47.748Z,93.10
2023-11-24T23:45:15.569Z,93.40
2023-11-24T23:47:44.048Z,93.10
2023-11-24T23:50:12.392Z,94.00
2023-11-24T23:52:40.631Z,93.10
2023-11-24T23:55:09.240Z,93.10
2023-11-24T23:57:38.852Z,93.30
